createdAt,value
2016-06-08T00:00:27.355Z,32.24
2016-06-08T00:01:27.374Z,32.44
2016-06-08T00:02:27.408Z,32.54
2016-06-08T00:03:27.441Z,32.34
2016-06-08T00:04:27.460Z,32.44
2016-06-08T00:05:27.494Z,32.34
2016-06-08T00:06:27.528Z,32.34
2016-06-08T00:07:27.546Z,32.71
2016-06-08T00:08:27.783Z,32.62
2016-06-08T00:09:27.614Z,32.81
2016-06-08T00:10:27.647Z,33
2016-06-08T00:11:27.666Z,33.39
2016-06-08T00:12:27.699Z,33.2
2016-06-08T00:13:27.718Z,33.1
2016-06-08T00:14:27.752Z,33
2016-06-08T00:15:27.786Z,33.1
2016-06-08T00:16:27.821Z,32.91
2016-06-08T00:17:27.838Z,33.29
2016-06-08T00:18:27.873Z,33.2
2016-06-08T00:19:27.906Z,33.1
2016-06-08T00:20:27.924Z,33.2
2016-06-08T00:21:27.959Z,33.48
2016-06-08T00:22:27.993Z,33.39
2016-06-08T00:23:28.011Z,33.48
2016-06-08T00:24:28.044Z,33.68
2016-06-08T00:25:28.063Z,33.78
2016-06-08T00:26:28.097Z,33.68
2016-06-08T00:27:28.131Z,33.97
2016-06-08T00:28:28.149Z,33.57
2016-06-08T00:29:28.198Z,33.87
2016-06-08T00:30:28.217Z,33.78
2016-06-08T00:31:28.236Z,33.87
2016-06-08T00:32:28.270Z,33.68
2016-06-08T00:33:28.303Z,34.14
2016-06-08T00:34:28.322Z,34.14
2016-06-08T00:35:28.355Z,34.06
2016-06-08T00:36:28.389Z,33.76
2016-06-08T00:37:28.408Z,34.24
2016-06-08T00:38:28.457Z,34.44
2016-06-08T00:39:28.476Z,34.44
2016-06-08T00:40:28.494Z,34.14
2016-06-08T00:41:29.044Z,33.95
2016-06-08T00:42:28.563Z,33.95
2016-06-08T00:43:28.580Z,34.34
2016-06-08T00:44:28.614Z,34.14
2016-06-08T00:45:28.632Z,34.14
2016-06-08T00:46:28.666Z,34.53
2016-06-08T00:47:28.701Z,34.72
2016-06-08T00:48:28.719Z,34.82
2016-06-08T00:49:28.752Z,34.63
2016-06-08T00:50:28.771Z,34.72
2016-06-08T00:51:28.804Z,34.92
2016-06-08T00:52:28.839Z,35.02
2016-06-08T00:53:28.873Z,34.92
2016-06-08T00:54:28.890Z,34.92
2016-06-08T00:55:28.926Z,34.92
2016-06-08T00:56:28.959Z,35.02
2016-06-08T00:57:28.993Z,35.02
2016-06-08T00:58:29.012Z,35.02
2016-06-08T00:59:29.029Z,35.11
2016-06-08T01:00:29.064Z,34.8
2016-06-08T01:01:29.097Z,35.21
2016-06-08T01:02:29.116Z,35
2016-06-08T01:03:29.150Z,35.1
2016-06-08T01:04:29.184Z,35.1
2016-06-08T01:05:29.202Z,35.19
2016-06-08T01:06:29.236Z,35.3
2016-06-08T01:07:29.269Z,35.38
2016-06-08T01:08:29.288Z,35.28
2016-06-08T01:09:29.322Z,35.48
2016-06-08T01:10:29.199Z,35.28
2016-06-08T01:11:29.937Z,35.38
2016-06-08T01:12:29.393Z,35.48
2016-06-08T01:13:29.427Z,35.48
2016-06-08T01:14:29.461Z,35.48
2016-06-08T01:15:29.479Z,35.38
2016-06-08T01:16:29.513Z,35.48
2016-06-08T01:17:29.531Z,35.28
2016-06-08T01:18:29.565Z,35.28
2016-06-08T01:19:29.599Z,35.86
2016-06-08T01:20:29.618Z,35.86
2016-06-08T01:21:29.651Z,35.58
2016-06-08T01:22:29.670Z,35.67
2016-06-08T01:23:29.704Z,35.67
2016-06-08T01:24:29.737Z,35.67
2016-06-08T01:25:29.756Z,35.58
2016-06-08T01:26:29.789Z,35.67
2016-06-08T01:27:30.184Z,35.67
2016-06-08T01:28:29.842Z,35.56
2016-06-08T01:29:29.876Z,36.04
2016-06-08T01:30:29.910Z,36.13
2016-06-08T01:31:29.928Z,36.04
2016-06-08T01:32:29.962Z,36.13
2016-06-08T01:33:29.995Z,36.23
2016-06-08T01:34:30.014Z,36.33
2016-06-08T01:35:30.048Z,36.61
2016-06-08T01:36:30.067Z,36.43
2016-06-08T01:37:30.100Z,36.23
2016-06-08T01:38:30.134Z,36.43
2016-06-08T01:39:30.152Z,36.61
2016-06-08T01:40:30.186Z,36.61
2016-06-08T01:41:30.439Z,36.52
2016-06-08T01:42:30.801Z,36.91
2016-06-08T01:43:30.273Z,36.91
2016-06-08T01:44:30.291Z,36.81
2016-06-08T01:45:30.310Z,36.91
2016-06-08T01:46:30.344Z,36.33
2016-06-08T01:47:30.377Z,36.81
2016-06-08T01:48:30.411Z,36.91
2016-06-08T01:49:30.429Z,36.71
2016-06-08T01:50:30.448Z,36.89
2016-06-08T01:51:30.482Z,36.69
2016-06-08T01:52:30.516Z,36.69
2016-06-08T01:53:30.549Z,36.79
2016-06-08T01:54:30.568Z,36.91
2016-06-08T01:55:30.601Z,36.6
2016-06-08T01:56:30.620Z,36.61
2016-06-08T01:57:30.654Z,37.08
2016-06-08T01:58:30.673Z,37.08
2016-06-08T01:59:30.707Z,37.27
2016-06-08T02:00:30.725Z,37.18
2016-06-08T02:01:30.759Z,37.46
2016-06-08T02:02:30.793Z,37.27
2016-06-08T02:03:30.811Z,37.76
2016-06-08T02:04:30.861Z,37.56
2016-06-08T02:05:30.863Z,37.56
2016-06-08T02:06:30.897Z,37.66
2016-06-08T02:07:30.931Z,37.66
2016-06-08T02:08:30.965Z,37.46
2016-06-08T02:09:30.983Z,37.56
2016-06-08T02:10:31.002Z,37.76
2016-06-08T02:11:31.035Z,37.76
2016-06-08T02:12:31.070Z,37.85
2016-06-08T02:13:31.088Z,37.85
2016-06-08T02:14:31.169Z,37.95
2016-06-08T02:15:31.156Z,37.85
2016-06-08T02:16:31.174Z,37.66
2016-06-08T02:17:31.193Z,37.46
2016-06-08T02:18:31.227Z,37.46
2016-06-08T02:19:31.260Z,38.04
2016-06-08T02:20:31.326Z,38.14
2016-06-08T02:21:31.312Z,38.24
2016-06-08T02:22:31.331Z,38.24
2016-06-08T02:23:31.365Z,38.04
2016-06-08T02:24:31.383Z,38.24
2016-06-08T02:25:31.417Z,38.22
2016-06-08T02:26:31.435Z,38.22
2016-06-08T02:27:31.469Z,38.22
2016-06-08T02:28:31.331Z,38.22
2016-06-08T02:29:31.537Z,38.51
2016-06-08T02:30:31.570Z,38.31
2016-06-08T02:31:31.574Z,38.51
2016-06-08T02:32:31.608Z,38.51
2016-06-08T02:33:31.657Z,38.41
2016-06-08T02:34:31.676Z,38.51
2016-06-08T02:35:31.537Z,38.41
2016-06-08T02:36:31.712Z,38.51
2016-06-08T02:37:31.590Z,38.22
2016-06-08T02:38:31.780Z,38.02
2016-06-08T02:39:31.798Z,38.51
2016-06-08T02:40:32.130Z,38.41
2016-06-08T02:41:31.850Z,38.41
2016-06-08T02:42:32.181Z,38.22
2016-06-08T02:43:31.902Z,38.6
2016-06-08T02:44:31.936Z,38.6
2016-06-08T02:45:32.065Z,38.6
2016-06-08T02:46:32.082Z,38.6
2016-06-08T02:47:32.133Z,38.41
2016-06-08T02:48:32.291Z,38.39
2016-06-08T02:49:32.122Z,38.7
2016-06-08T02:50:32.141Z,38.68
2016-06-08T02:51:32.143Z,38.7
2016-06-08T02:52:32.146Z,38.68
2016-06-08T02:53:32.290Z,38.78
2016-06-08T02:54:32.292Z,38.51
2016-06-08T02:55:32.326Z,38.78
2016-06-08T02:56:32.454Z,38.78
2016-06-08T02:57:32.346Z,38.68
2016-06-08T02:58:32.396Z,38.78
2016-06-08T02:59:32.398Z,38.68
2016-06-08T03:00:32.401Z,38.78
2016-06-08T03:01:32.280Z,38.68
2016-06-08T03:02:32.406Z,38.68
2016-06-08T03:03:32.442Z,38.87
2016-06-08T03:04:32.475Z,38.97
2016-06-08T03:05:32.493Z,38.87
2016-06-08T03:06:32.528Z,38.87
2016-06-08T03:07:32.561Z,39.06
2016-06-08T03:08:32.580Z,39.16
2016-06-08T03:09:32.598Z,39.06
2016-06-08T03:10:32.631Z,38.87
2016-06-08T03:11:32.650Z,38.87
2016-06-08T03:12:32.544Z,39.36
2016-06-08T03:13:32.921Z,39.16
2016-06-08T03:14:32.736Z,39.36
2016-06-08T03:15:32.754Z,39.06
2016-06-08T03:16:32.788Z,39.06
2016-06-08T03:17:32.823Z,39.36
2016-06-08T03:18:32.857Z,39.54
2016-06-08T03:19:32.906Z,39.36
2016-06-08T03:20:32.893Z,39.36
2016-06-08T03:21:32.927Z,39.54
2016-06-08T03:22:32.945Z,39.45
2016-06-08T03:23:32.979Z,39.54
2016-06-08T03:24:32.998Z,39.54
2016-06-08T03:25:33.032Z,39.45
2016-06-08T03:26:33.082Z,39.45
2016-06-08T03:27:33.115Z,39.64
2016-06-08T03:28:32.962Z,39.45
2016-06-08T03:29:33.339Z,39.83
2016-06-08T03:30:33.170Z,39.93
2016-06-08T03:31:33.187Z,39.72
2016-06-08T03:32:33.222Z,39.64
2016-06-08T03:33:33.241Z,39.64
2016-06-08T03:34:33.275Z,39.81
2016-06-08T03:35:33.293Z,39.62
2016-06-08T03:36:33.326Z,39.81
2016-06-08T03:37:33.361Z,39.62
2016-06-08T03:38:33.379Z,39.81
2016-06-08T03:39:33.413Z,39.81
2016-06-08T03:40:33.431Z,40.03
2016-06-08T03:41:33.450Z,39.83
2016-06-08T03:42:33.890Z,39.91
2016-06-08T03:43:33.502Z,40.2
2016-06-08T03:44:33.536Z,40.49
2016-06-08T03:45:33.555Z,40.03
2016-06-08T03:46:33.588Z,40.11
2016-06-08T03:47:34.215Z,40.01
2016-06-08T03:48:33.641Z,40.11
2016-06-08T03:49:33.658Z,40.11
2016-06-08T03:50:33.708Z,40.01
2016-06-08T03:51:33.710Z,40.03
2016-06-08T03:52:33.744Z,40.3
2016-06-08T03:53:33.763Z,40.51
2016-06-08T03:54:33.797Z,40.68
2016-06-08T03:55:34.018Z,40.39
2016-06-08T03:56:34.334Z,40.39
2016-06-08T03:57:33.914Z,40.49
2016-06-08T03:58:33.933Z,40.68
2016-06-08T03:59:33.921Z,40.49
2016-06-08T04:00:34.563Z,40.39
2016-06-08T04:01:33.987Z,40.58
2016-06-08T04:02:34.006Z,40.58
2016-06-08T04:03:34.040Z,40.49
2016-06-08T04:04:34.058Z,40.49
2016-06-08T04:05:34.092Z,40.39
2016-06-08T04:06:34.157Z,40.39
2016-06-08T04:07:34.160Z,40.58
2016-06-08T04:08:34.178Z,40.88
2016-06-08T04:09:34.181Z,40.68
2016-06-08T04:10:34.325Z,40.88
2016-06-08T04:11:34.327Z,40.97
2016-06-08T04:12:35.923Z,40.78
2016-06-08T04:13:34.504Z,40.88
2016-06-08T04:14:34.383Z,40.97
2016-06-08T04:15:34.386Z,40.97
2016-06-08T04:16:34.388Z,40.97
2016-06-08T04:17:34.593Z,40.88
2016-06-08T04:18:34.424Z,40.97
2016-06-08T04:19:34.458Z,41.06
2016-06-08T04:20:34.476Z,40.88
2016-06-08T04:21:34.510Z,40.97
2016-06-08T04:22:34.529Z,41.26
2016-06-08T04:23:34.563Z,40.97
2016-06-08T04:24:34.580Z,41.16
2016-06-08T04:25:34.615Z,41.26
2016-06-08T04:26:34.633Z,41.26
2016-06-08T04:27:35.292Z,41.16
2016-06-08T04:28:34.716Z,41.06
2016-06-08T04:29:34.718Z,41.06
2016-06-08T04:30:34.738Z,41.26
2016-06-08T04:31:34.866Z,41.26
2016-06-08T04:32:34.868Z,41.06
2016-06-08T04:33:35.027Z,41.06
2016-06-08T04:34:35.045Z,41.26
2016-06-08T04:35:35.048Z,41.16
2016-06-08T04:36:35.050Z,41.06
2016-06-08T04:37:35.225Z,40.97
2016-06-08T04:38:35.056Z,41.06
2016-06-08T04:39:35.075Z,41.16
2016-06-08T04:40:35.108Z,41.06
2016-06-08T04:41:35.220Z,41.06
2016-06-08T04:42:35.286Z,41.45
2016-06-08T04:43:35.241Z,41.64
2016-06-08T04:44:35.150Z,41.64
2016-06-08T04:45:35.215Z,41.45
2016-06-08T04:46:35.453Z,41.74
2016-06-08T04:47:35.253Z,41.83
2016-06-08T04:48:35.270Z,41.74
2016-06-08T04:49:35.272Z,41.64
2016-06-08T04:50:35.275Z,41.93
2016-06-08T04:51:35.278Z,41.83
2016-06-08T04:52:35.312Z,41.74
2016-06-08T04:53:35.331Z,41.83
2016-06-08T04:54:35.365Z,41.74
2016-06-08T04:55:35.399Z,41.74
2016-06-08T04:56:35.416Z,41.83
2016-06-08T04:57:35.451Z,41.74
2016-06-08T04:58:35.907Z,41.93
2016-06-08T04:59:35.503Z,41.74
2016-06-08T05:00:35.537Z,41.64
2016-06-08T05:01:35.554Z,41.74
2016-06-08T05:02:35.573Z,41.93
2016-06-08T05:03:35.608Z,42.12
2016-06-08T05:04:35.657Z,42.03
2016-06-08T05:05:35.660Z,42.12
2016-06-08T05:06:35.681Z,42.22
2016-06-08T05:07:35.741Z,42.12
2016-06-08T05:08:35.755Z,42.12
2016-06-08T05:09:35.798Z,42.32
2016-06-08T05:10:35.828Z,42.41
2016-06-08T05:11:35.869Z,42.5
2016-06-08T05:12:36.079Z,42.41
2016-06-08T05:13:35.960Z,42.41
2016-06-08T05:14:35.967Z,42.41
2016-06-08T05:15:35.989Z,42.32
2016-06-08T05:16:36.010Z,42.5
2016-06-08T05:17:36.045Z,42.5
2016-06-08T05:18:36.065Z,42.5
2016-06-08T05:19:35.928Z,42.7
2016-06-08T05:20:36.136Z,42.41
2016-06-08T05:21:36.280Z,42.5
2016-06-08T05:22:36.173Z,42.7
2016-06-08T05:23:36.208Z,43.11
2016-06-08T05:24:36.227Z,42.99
2016-06-08T05:25:36.277Z,42.82
2016-06-08T05:26:36.280Z,42.91
2016-06-08T05:27:36.923Z,42.8
2016-06-08T05:28:36.176Z,42.8
2016-06-08T05:29:36.351Z,42.8
2016-06-08T05:30:36.479Z,42.72
2016-06-08T05:31:36.420Z,42.72
2016-06-08T05:32:36.438Z,43.01
2016-06-08T05:33:36.457Z,42.99
2016-06-08T05:34:36.490Z,42.91
2016-06-08T05:35:36.509Z,43.11
2016-06-08T05:36:36.573Z,43.49
2016-06-08T05:37:36.562Z,43.11
2016-06-08T05:38:36.595Z,43.88
2016-06-08T05:39:36.612Z,43.59
2016-06-08T05:40:36.648Z,43.2
2016-06-08T05:41:36.665Z,43.3
2016-06-08T05:42:37.481Z,43.3
2016-06-08T05:43:36.733Z,43.4
2016-06-08T05:44:36.751Z,43.4
2016-06-08T05:45:36.786Z,43.4
2016-06-08T05:46:36.820Z,43.97
2016-06-08T05:47:36.822Z,43.88
2016-06-08T05:48:36.856Z,43.68
2016-06-08T05:49:36.906Z,43.97
2016-06-08T05:50:36.908Z,43.88
2016-06-08T05:51:36.942Z,44.07
2016-06-08T05:52:36.961Z,43.68
2016-06-08T05:53:36.979Z,43.88
2016-06-08T05:54:37.028Z,44.07
2016-06-08T05:55:37.030Z,44.07
2016-06-08T05:56:37.066Z,43.97
2016-06-08T05:57:37.177Z,43.97
2016-06-08T05:58:36.961Z,43.97
2016-06-08T05:59:37.135Z,43.97
2016-06-08T06:00:37.169Z,44.45
2016-06-08T06:01:37.188Z,43.78
2016-06-08T06:02:37.221Z,43.97
2016-06-08T06:03:37.240Z,44.26
2016-06-08T06:04:37.273Z,44.07
2016-06-08T06:05:37.293Z,44.28
2016-06-08T06:06:37.327Z,44.48
2016-06-08T06:07:37.345Z,44.48
2016-06-08T06:08:37.378Z,44.38
2016-06-08T06:09:37.397Z,44.48
2016-06-08T06:10:37.431Z,44.28
2016-06-08T06:11:37.448Z,44.28
2016-06-08T06:12:38.030Z,44.76
2016-06-08T06:13:38.095Z,44.57
2016-06-08T06:14:37.536Z,44.67
2016-06-08T06:15:37.554Z,44.76
2016-06-08T06:16:37.587Z,44.96
2016-06-08T06:17:37.606Z,44.86
2016-06-08T06:18:37.639Z,45.15
2016-06-08T06:19:37.658Z,44.96
2016-06-08T06:20:37.692Z,45.15
2016-06-08T06:21:37.725Z,44.96
2016-06-08T06:22:37.744Z,44.86
2016-06-08T06:23:37.778Z,44.98
2016-06-08T06:24:37.797Z,45.07
2016-06-08T06:25:37.815Z,45.05
2016-06-08T06:26:37.849Z,45.07
2016-06-08T06:27:37.883Z,45.17
2016-06-08T06:28:37.916Z,44.89
2016-06-08T06:29:37.935Z,44.98
2016-06-08T06:30:37.953Z,44.98
2016-06-08T06:31:37.987Z,44.98
2016-06-08T06:32:38.006Z,44.89
2016-06-08T06:33:38.040Z,44.69
2016-06-08T06:34:38.057Z,44.59
2016-06-08T06:35:38.093Z,44.4
2016-06-08T06:36:38.110Z,44.21
2016-06-08T06:37:38.160Z,43.82
2016-06-08T06:38:38.162Z,44.02
2016-06-08T06:39:38.196Z,43.44
2016-06-08T06:40:38.231Z,43.24
2016-06-08T06:41:38.248Z,43.15
2016-06-08T06:42:38.282Z,43.34
2016-06-08T06:43:38.879Z,43.73
2016-06-08T06:44:38.335Z,43.27
2016-06-08T06:45:38.369Z,43.63
2016-06-08T06:46:38.372Z,43.63
2016-06-08T06:47:38.406Z,43.55
2016-06-08T06:48:38.283Z,43.75
2016-06-08T06:49:38.473Z,43.55
2016-06-08T06:50:38.491Z,43.65
2016-06-08T06:51:38.353Z,43.27
2016-06-08T06:52:38.544Z,43.55
2016-06-08T06:53:38.562Z,43.17
2016-06-08T06:54:38.597Z,43.27
2016-06-08T06:55:38.646Z,43.37
2016-06-08T06:56:38.649Z,43.46
2016-06-08T06:57:38.666Z,43.37
2016-06-08T06:58:38.700Z,43.55
2016-06-08T06:59:38.735Z,43.85
2016-06-08T07:00:38.752Z,43.75
2016-06-08T07:01:38.787Z,43.38
2016-06-08T07:02:38.836Z,43.85
2016-06-08T07:03:38.839Z,44.06
2016-06-08T07:04:38.858Z,43.96
2016-06-08T07:05:38.890Z,44.15
2016-06-08T07:06:38.926Z,43.87
2016-06-08T07:07:38.944Z,43.67
2016-06-08T07:08:38.977Z,44.25
2016-06-08T07:09:38.996Z,44.25
2016-06-08T07:10:39.029Z,44.06
2016-06-08T07:11:39.048Z,44.54
2016-06-08T07:12:39.082Z,44.54
2016-06-08T07:13:39.428Z,44.56
2016-06-08T07:14:39.150Z,44.76
2016-06-08T07:15:39.152Z,44.85
2016-06-08T07:16:39.202Z,44.56
2016-06-08T07:17:39.206Z,44.95
2016-06-08T07:18:39.286Z,44.76
2016-06-08T07:19:39.245Z,44.76
2016-06-08T07:20:39.295Z,44.85
2016-06-08T07:21:39.159Z,44.66
2016-06-08T07:22:39.342Z,44.68
2016-06-08T07:23:39.367Z,44.56
2016-06-08T07:24:39.388Z,44.78
2016-06-08T07:25:39.422Z,44.68
2016-06-08T07:26:39.456Z,44.49
2016-06-08T07:27:39.475Z,44.59
2016-06-08T07:28:39.525Z,44.68
2016-06-08T07:29:39.542Z,44.49
2016-06-08T07:30:39.561Z,44.68
2016-06-08T07:31:39.610Z,44.22
2016-06-08T07:32:39.628Z,44.22
2016-06-08T07:33:39.647Z,44.32
2016-06-08T07:34:39.681Z,43.74
2016-06-08T07:35:39.705Z,43.93
2016-06-08T07:36:39.723Z,43.74
2016-06-08T07:37:39.773Z,44.03
2016-06-08T07:38:39.792Z,44.05
2016-06-08T07:39:39.809Z,43.76
2016-06-08T07:40:39.828Z,43.66
2016-06-08T07:41:39.867Z,43.47
2016-06-08T07:42:39.885Z,43.28
2016-06-08T07:43:39.919Z,43.49
2016-06-08T07:44:39.953Z,44.05
2016-06-08T07:45:39.987Z,43.68
2016-06-08T07:46:40.005Z,43.59
2016-06-08T07:47:40.023Z,43.3
2016-06-08T07:48:40.057Z,43.01
2016-06-08T07:49:39.919Z,42.91
2016-06-08T07:50:40.110Z,42.93
2016-06-08T07:51:40.154Z,43.23
2016-06-08T07:52:40.157Z,42.83
2016-06-08T07:53:40.191Z,42.74
2016-06-08T07:54:41.521Z,42.37
2016-06-08T07:55:40.243Z,42.66
2016-06-08T07:56:40.279Z,42.47
2016-06-08T07:57:40.297Z,42.28
2016-06-08T07:58:40.706Z,41.89
2016-06-08T07:59:40.193Z,41.6
2016-06-08T08:00:40.383Z,41.41
2016-06-08T08:01:40.417Z,41.31
2016-06-08T08:02:40.436Z,41.33
2016-06-08T08:03:40.470Z,41.33
2016-06-08T08:04:40.488Z,41.14
2016-06-08T08:05:40.522Z,40.94
2016-06-08T08:06:40.572Z,40.75
2016-06-08T08:07:40.575Z,40.75
2016-06-08T08:08:40.625Z,40.67
2016-06-08T08:09:40.642Z,40.48
2016-06-08T08:10:40.661Z,40.38
2016-06-08T08:11:40.697Z,40.28
2016-06-08T08:12:40.716Z,40.09
2016-06-08T08:13:41.547Z,40.21
2016-06-08T08:14:40.775Z,40.21
2016-06-08T08:15:40.872Z,39.92
2016-06-08T08:16:40.843Z,40.21
2016-06-08T08:17:40.862Z,39.62
2016-06-08T08:18:40.896Z,39.43
2016-06-08T08:19:40.930Z,39.16
2016-06-08T08:20:40.948Z,39.45
2016-06-08T08:21:40.982Z,39.16
2016-06-08T08:22:41.015Z,39.06
2016-06-08T08:23:41.035Z,38.78
2016-06-08T08:24:41.069Z,38.79
2016-06-08T08:25:41.101Z,38.79
2016-06-08T08:26:41.121Z,38.79
2016-06-08T08:27:41.154Z,38.6
2016-06-08T08:28:41.032Z,38.5
2016-06-08T08:29:41.207Z,37.84
2016-06-08T08:30:41.240Z,38.23
2016-06-08T08:31:41.275Z,37.74
2016-06-08T08:32:41.292Z,37.84
2016-06-08T08:33:41.326Z,37.16
2016-06-08T08:34:41.361Z,37.37
2016-06-08T08:35:41.378Z,37.07
2016-06-08T08:36:41.413Z,37.18
2016-06-08T08:37:41.447Z,36.4
2016-06-08T08:38:41.481Z,36.6
2016-06-08T08:39:41.500Z,36.3
2016-06-08T08:40:41.517Z,35.72
2016-06-08T08:41:41.552Z,35.92
2016-06-08T08:42:41.601Z,35.64
2016-06-08T08:43:42.214Z,35.94
2016-06-08T08:44:41.669Z,35.94
2016-06-08T08:45:41.688Z,35.64
2016-06-08T08:46:41.752Z,35.64
2016-06-08T08:47:42.099Z,35.55
2016-06-08T08:48:41.757Z,35.47
2016-06-08T08:49:41.791Z,35.17
2016-06-08T08:50:41.841Z,35.08
2016-06-08T08:51:41.859Z,35.1
2016-06-08T08:52:41.721Z,34.9
2016-06-08T08:53:41.912Z,34.5
2016-06-08T08:54:41.976Z,34.61
2016-06-08T08:55:42.010Z,34.61
2016-06-08T08:56:41.998Z,34.52
2016-06-08T08:57:42.032Z,34.24
2016-06-08T08:58:42.316Z,34.43
2016-06-08T08:59:42.257Z,34.14
2016-06-08T09:00:42.117Z,33.95
2016-06-08T09:01:41.996Z,33.85
2016-06-08T09:02:42.187Z,33.38
2016-06-08T09:03:42.220Z,33.38
2016-06-08T09:04:42.239Z,33.48
2016-06-08T09:05:42.287Z,32.89
2016-06-08T09:06:42.290Z,32.62
2016-06-08T09:07:42.325Z,32.81
2016-06-08T09:08:42.592Z,32.32
2016-06-08T09:09:42.392Z,32.52
2016-06-08T09:10:42.426Z,32.23
2016-06-08T09:11:42.288Z,32.13
2016-06-08T09:12:42.478Z,32.24
2016-06-08T09:13:42.356Z,32.15
2016-06-08T09:14:42.625Z,31.76
2016-06-08T09:15:42.580Z,31.66
2016-06-08T09:16:42.614Z,31.66
2016-06-08T09:17:42.649Z,31.38
2016-06-08T09:18:42.666Z,31.38
2016-06-08T09:19:42.716Z,31.38
2016-06-08T09:20:42.735Z,30.81
2016-06-08T09:21:42.769Z,31.1
2016-06-08T09:22:42.802Z,30.71
2016-06-08T09:23:42.821Z,30.62
2016-06-08T09:24:42.854Z,30.52
2016-06-08T09:25:42.732Z,30.52
2016-06-08T09:26:42.923Z,30.24
2016-06-08T09:27:42.785Z,30.15
2016-06-08T09:28:42.974Z,29.95
2016-06-08T09:29:43.008Z,29.95
2016-06-08T09:30:43.059Z,29.86
2016-06-08T09:31:43.076Z,29.08
2016-06-08T09:32:43.110Z,29.47
2016-06-08T09:33:43.144Z,29.67
2016-06-08T09:34:43.162Z,29.3
2016-06-08T09:35:43.197Z,29.2
2016-06-08T09:36:43.230Z,29.3
2016-06-08T09:37:43.264Z,28.52
2016-06-08T09:38:43.298Z,28.91
2016-06-08T09:39:43.333Z,28.82
2016-06-08T09:40:43.367Z,28.63
2016-06-08T09:41:43.384Z,28.43
2016-06-08T09:42:43.419Z,28.63
2016-06-08T09:43:43.859Z,28.04
2016-06-08T09:44:43.503Z,28.23
2016-06-08T09:45:43.520Z,28.34
2016-06-08T09:46:43.555Z,27.86
2016-06-08T09:47:43.588Z,28.15
2016-06-08T09:48:43.622Z,27.28
2016-06-08T09:49:43.656Z,27.48
2016-06-08T09:50:43.690Z,27.67
2016-06-08T09:51:43.724Z,27.38
2016-06-08T09:52:43.757Z,26.9
2016-06-08T09:53:43.777Z,26.61
2016-06-08T09:54:43.810Z,26.61
2016-06-08T09:55:43.844Z,26.9
2016-06-08T09:56:43.878Z,26.53
2016-06-08T09:57:43.912Z,26.12
2016-06-08T09:58:44.509Z,26.14
2016-06-08T09:59:43.979Z,25.84
2016-06-08T10:00:44.014Z,26.04
2016-06-08T10:01:44.048Z,26.14
2016-06-08T10:02:43.910Z,25.84
2016-06-08T10:03:44.100Z,25.94
2016-06-08T10:04:44.134Z,25.74
2016-06-08T10:05:44.168Z,25.94
2016-06-08T10:06:44.202Z,25.35
2016-06-08T10:07:44.252Z,25.46
2016-06-08T10:08:44.269Z,25.37
2016-06-08T10:09:44.304Z,25.46
2016-06-08T10:10:44.337Z,25.46
2016-06-08T10:11:44.372Z,25.37
2016-06-08T10:12:44.406Z,25.17
2016-06-08T10:13:44.455Z,25.07
2016-06-08T10:14:45.520Z,24.58
2016-06-08T10:15:44.570Z,24.69
2016-06-08T10:16:44.542Z,24.3
2016-06-08T10:17:44.575Z,24.4
2016-06-08T10:18:44.593Z,24.3
2016-06-08T10:19:44.627Z,24.3
2016-06-08T10:20:44.661Z,24.4
2016-06-08T10:21:44.696Z,24.4
2016-06-08T10:22:44.744Z,23.91
2016-06-08T10:23:44.872Z,23.91
2016-06-08T10:24:44.796Z,24.1
2016-06-08T10:25:44.877Z,23.91
2016-06-08T10:26:44.865Z,24.2
2016-06-08T10:27:44.915Z,24.01
2016-06-08T10:28:44.793Z,24.01
2016-06-08T10:29:44.982Z,23.71
2016-06-08T10:30:45.001Z,23.82
2016-06-08T10:31:45.034Z,23.13
2016-06-08T10:32:45.069Z,23.03
2016-06-08T10:33:45.118Z,23.13
2016-06-08T10:34:45.137Z,23.03
2016-06-08T10:35:45.170Z,23.23
2016-06-08T10:36:45.220Z,23.14
2016-06-08T10:37:45.082Z,23.34
2016-06-08T10:38:45.288Z,23.14
2016-06-08T10:39:45.306Z,22.56
2016-06-08T10:40:45.356Z,22.16
2016-06-08T10:41:45.390Z,22.37
2016-06-08T10:42:45.408Z,22.27
2016-06-08T10:43:46.395Z,22.08
2016-06-08T10:44:45.336Z,21.78
2016-06-08T10:45:45.525Z,21.69
2016-06-08T10:46:45.559Z,21.11
2016-06-08T10:47:45.593Z,21.2
2016-06-08T10:48:45.627Z,21.2
2016-06-08T10:49:45.661Z,21.2
2016-06-08T10:50:45.695Z,21.11
2016-06-08T10:51:45.791Z,21.4
2016-06-08T10:52:47.029Z,21.51
2016-06-08T10:53:45.938Z,21.22
2016-06-08T10:54:45.941Z,20.92
2016-06-08T10:55:45.974Z,21.12
2016-06-08T10:56:45.992Z,20.92
2016-06-08T10:57:45.979Z,20.83
2016-06-08T10:58:46.279Z,20.83
2016-06-08T10:59:46.032Z,20.34
2016-06-08T11:00:46.129Z,20.34
2016-06-08T11:01:46.163Z,20.54
2016-06-08T11:02:46.165Z,20.25
2016-06-08T11:03:46.168Z,20.15
2016-06-08T11:04:46.186Z,19.66
2016-06-08T11:05:46.220Z,19.76
2016-06-08T11:06:46.270Z,19.77
2016-06-08T11:07:46.288Z,19.57
2016-06-08T11:08:46.322Z,19.96
2016-06-08T11:09:46.371Z,19.96
2016-06-08T11:10:46.405Z,19.58
2016-06-08T11:11:46.455Z,19.48
2016-06-08T11:12:46.473Z,19.19
2016-06-08T11:13:46.522Z,19.19
2016-06-08T11:14:47.681Z,19.2
2016-06-08T11:15:46.731Z,19.1
2016-06-08T11:16:46.608Z,18.9
2016-06-08T11:17:46.658Z,18.81
2016-06-08T11:18:46.677Z,18.51
2016-06-08T11:19:46.710Z,18.42
2016-06-08T11:20:46.823Z,18.42
2016-06-08T11:21:46.811Z,18.32
2016-06-08T11:22:46.827Z,17.83
2016-06-08T11:23:46.988Z,18.12
2016-06-08T11:24:47.005Z,18.02
2016-06-08T11:25:46.946Z,18.04
2016-06-08T11:26:47.011Z,17.94
2016-06-08T11:27:46.998Z,17.83
2016-06-08T11:28:47.079Z,17.74
2016-06-08T11:29:47.894Z,17.54
2016-06-08T11:30:47.115Z,17.45
2016-06-08T11:31:46.993Z,17.55
2016-06-08T11:32:47.199Z,17.25
2016-06-08T11:33:47.217Z,17.55
2016-06-08T11:34:47.251Z,17.26
2016-06-08T11:35:47.301Z,16.77
2016-06-08T11:36:47.334Z,17.26
2016-06-08T11:37:47.212Z,17.07
2016-06-08T11:38:47.245Z,16.97
2016-06-08T11:39:47.451Z,16.97
2016-06-08T11:40:47.487Z,16.78
2016-06-08T11:41:47.520Z,16.68
2016-06-08T11:42:47.554Z,16.48
2016-06-08T11:43:47.447Z,16.19
2016-06-08T11:44:47.669Z,16.19
2016-06-08T11:45:47.672Z,16.09
2016-06-08T11:46:48.175Z,16.19
2016-06-08T11:47:47.739Z,15.41
2016-06-08T11:48:47.789Z,15.51
2016-06-08T11:49:47.650Z,15.7
2016-06-08T11:50:48.653Z,15.21
2016-06-08T11:51:47.906Z,15.21
2016-06-08T11:52:47.940Z,15.22
2016-06-08T11:53:47.958Z,15.42
2016-06-08T11:54:47.852Z,15.02
2016-06-08T11:55:48.041Z,15.02
2016-06-08T11:56:48.077Z,15.12
2016-06-08T11:57:48.110Z,14.62
2016-06-08T11:58:48.143Z,14.83
2016-06-08T11:59:49.193Z,14.83
2016-06-08T12:00:48.258Z,14.73
2016-06-08T12:01:48.823Z,14.83
2016-06-08T12:02:48.296Z,14.44
2016-06-08T12:03:48.345Z,14.04
2016-06-08T12:04:48.378Z,14.44
2016-06-08T12:05:48.413Z,14.45
2016-06-08T12:06:48.446Z,14.15
2016-06-08T12:07:48.496Z,14.06
2016-06-08T12:08:48.530Z,13.85
2016-06-08T12:09:48.564Z,13.67
2016-06-08T12:10:48.598Z,13.96
2016-06-08T12:11:48.648Z,13.46
2016-06-08T12:12:48.681Z,13.76
2016-06-08T12:13:48.700Z,13.67
2016-06-08T12:14:48.765Z,13.46
2016-06-08T12:15:48.783Z,13.18
2016-06-08T12:16:48.817Z,13.37
2016-06-08T12:17:48.867Z,13.07
2016-06-08T12:18:48.900Z,13.08
2016-06-08T12:19:48.778Z,12.98
2016-06-08T12:20:48.983Z,13.08
2016-06-08T12:21:48.846Z,13.28
2016-06-08T12:22:48.896Z,12.99
2016-06-08T12:23:49.086Z,13.19
2016-06-08T12:24:49.119Z,12.59
2016-06-08T12:25:49.169Z,12.5
2016-06-08T12:26:49.203Z,12.2
2016-06-08T12:27:49.253Z,12.2
2016-06-08T12:28:49.288Z,11.9
2016-06-08T12:29:49.321Z,12.01
2016-06-08T12:30:49.354Z,11.71
2016-06-08T12:31:49.389Z,11.51
2016-06-08T12:32:49.438Z,11.71
2016-06-08T12:33:49.472Z,11.61
2016-06-08T12:34:49.506Z,11.72
2016-06-08T12:35:49.540Z,11.42
2016-06-08T12:36:49.684Z,11.52
2016-06-08T12:37:49.717Z,11.43
2016-06-08T12:38:49.720Z,11.52
2016-06-08T12:39:49.723Z,11.13
2016-06-08T12:40:49.865Z,11.13
2016-06-08T12:41:49.868Z,10.93
2016-06-08T12:42:49.903Z,10.83
2016-06-08T12:43:49.906Z,10.74
2016-06-08T12:44:49.970Z,10.94
2016-06-08T12:45:50.051Z,10.64
2016-06-08T12:46:50.039Z,10.84
2016-06-08T12:47:50.088Z,10.84
2016-06-08T12:48:50.075Z,10.84
2016-06-08T12:49:50.094Z,10.84
2016-06-08T12:50:50.142Z,10.84
2016-06-08T12:51:50.192Z,10.85
2016-06-08T12:52:50.211Z,10.55
2016-06-08T12:53:50.244Z,10.25
2016-06-08T12:54:50.294Z,10.34
2016-06-08T12:55:50.344Z,10.24